createdAt,value
2019-01-05T00:00:16.200Z,16.07
2019-01-05T00:03:21.810Z,16.20
2019-01-05T00:06:37.833Z,14.40
2019-01-05T00:09:58.278Z,15.07
2019-01-05T00:13:02.120Z,16.43
2019-01-05T00:16:22.484Z,15.60
2019-01-05T00:19:38.403Z,15.17
2019-01-05T00:22:42.244Z,14.80
2019-01-05T00:25:49.164Z,15.10
2019-01-05T00:28:55.638Z,14.57
2019-01-05T00:32:18.158Z,13.20
2019-01-05T00:35:42.221Z,13.30
2019-01-05T00:39:05.111Z,13.17
2019-01-05T00:42:26.275Z,13.73
2019-01-05T00:45:49.005Z,12.57
2019-01-05T00:49:11.525Z,13.30
2019-01-05T00:52:28.071Z,12.47
2019-01-05T00:55:41.031Z,11.13
2019-01-05T00:58:44.841Z,10.90
2019-01-05T01:01:48.842Z,10.50
2019-01-05T01:04:52.684Z,9.73
2019-01-05T01:08:08.514Z,11.13
2019-01-05T01:11:27.476Z,10.20
2019-01-05T01:14:37.445Z,9.40
2019-01-05T01:17:59.433Z,10.30
2019-01-05T01:21:19.076Z,9.67
2019-01-05T01:24:22.959Z,9.03
2019-01-05T01:27:39.112Z,8.90
2019-01-05T01:30:42.906Z,9.03
2019-01-05T01:34:03.282Z,8.73
2019-01-05T01:37:10.069Z,8.37
2019-01-05T01:44:20.751Z,7.60
2019-01-05T01:47:33.948Z,6.87
2019-01-05T01:50:55.348Z,5.83
2019-01-05T01:54:00.190Z,7.30
2019-01-05T01:57:16.576Z,6.20
2019-01-05T02:00:26.285Z,6.60
2019-01-05T02:03:30.715Z,6.57
2019-01-05T02:06:39.945Z,6.73
2019-01-05T02:09:44.906Z,6.33
2019-01-05T02:12:58.342Z,5.40
2019-01-05T02:16:22.237Z,5.47
2019-01-05T02:19:40.754Z,5.37
2019-01-05T02:23:10.745Z,6.87
2019-01-05T02:26:42.515Z,6.07
2019-01-05T02:30:09.347Z,5.60
2019-01-05T02:33:36.787Z,5.80
2019-01-05T02:37:19.121Z,6.60
2019-01-05T02:40:50.982Z,5.43
2019-01-05T02:44:01.479Z,5.87
2019-01-05T02:47:28.458Z,5.53
2019-01-05T02:50:41.798Z,5.87
2019-01-05T02:54:30.350Z,5.43
2019-01-05T02:57:57.344Z,4.93
2019-01-05T03:01:29.150Z,5.30
2019-01-05T03:05:05.502Z,5.80
2019-01-05T03:08:38.794Z,5.33
2019-01-05T03:12:13.133Z,5.70
2019-01-05T03:15:47.696Z,6.13
2019-01-05T03:19:15.596Z,5.70
2019-01-05T03:22:58.164Z,5.97
2019-01-05T03:26:25.145Z,5.87
2019-01-05T03:30:01.362Z,5.27
2019-01-05T03:33:25.472Z,4.57
2019-01-05T03:37:09.817Z,5.40
2019-01-05T03:40:19.999Z,5.70
2019-01-05T03:44:00.903Z,6.50
2019-01-05T03:47:23.555Z,5.10
2019-01-05T03:51:07.659Z,4.73
2019-01-05T03:54:24.004Z,5.93
2019-01-05T03:57:52.907Z,5.20
2019-01-05T04:01:18.389Z,5.80
2019-01-05T04:04:34.987Z,5.67
2019-01-05T04:08:14.323Z,5.90
2019-01-05T04:12:04.480Z,4.67
2019-01-05T04:15:30.580Z,5.73
2019-01-05T04:18:47.055Z,5.40
2019-01-05T04:22:23.999Z,4.93
2019-01-05T04:25:54.582Z,6.30
2019-01-05T04:29:26.182Z,4.83
2019-01-05T04:33:24.519Z,4.77
2019-01-05T04:37:10.464Z,5.27
2019-01-05T04:40:30.027Z,3.40
2019-01-05T04:44:01.111Z,4.03
2019-01-05T04:47:17.109Z,3.27
2019-01-05T04:50:39.565Z,3.37
2019-01-05T04:54:02.320Z,3.00
2019-01-05T04:58:00.647Z,2.73
2019-01-05T05:01:07.995Z,3.33
2019-01-05T05:04:58.412Z,3.30
2019-01-05T05:08:31.927Z,5.13
2019-01-05T05:12:11.483Z,3.80
2019-01-05T05:15:52.319Z,3.87
2019-01-05T05:19:41.888Z,3.73
2019-01-05T05:23:09.075Z,3.63
2019-01-05T05:26:51.573Z,3.30
2019-01-05T05:30:08.154Z,3.00
2019-01-05T05:33:39.380Z,3.30
2019-01-05T05:37:15.908Z,3.80
2019-01-05T05:40:55.429Z,3.10
2019-01-05T05:44:38.186Z,3.57
2019-01-05T05:48:01.179Z,4.07
2019-01-05T05:51:20.022Z,2.30
2019-01-05T05:54:35.828Z,3.33
2019-01-05T05:58:05.873Z,2.30
2019-01-05T06:01:51.567Z,3.83
2019-01-05T06:05:35.257Z,3.50
2019-01-05T06:09:02.558Z,3.73
2019-01-05T06:12:27.321Z,4.50
2019-01-05T06:15:43.046Z,3.30
2019-01-05T06:19:11.277Z,5.57
2019-01-05T06:23:04.619Z,4.63
2019-01-05T06:26:54.121Z,5.17
2019-01-05T06:30:23.987Z,4.73
2019-01-05T06:33:53.900Z,4.00
2019-01-05T06:37:22.943Z,4.03
2019-01-05T06:40:42.310Z,2.73
2019-01-05T06:43:52.447Z,3.10
2019-01-05T06:47:05.670Z,3.63
2019-01-05T06:50:40.826Z,3.27
2019-01-05T06:54:30.307Z,2.60
2019-01-05T06:58:31.154Z,2.90
2019-01-05T07:01:55.285Z,1.97
2019-01-05T07:05:28.703Z,3.63
2019-01-05T07:09:11.259Z,2.57
2019-01-05T07:12:53.593Z,2.63
2019-01-05T07:16:26.259Z,2.70
2019-01-05T07:19:42.829Z,3.20
2019-01-05T07:23:42.438Z,3.23
2019-01-05T07:27:38.758Z,3.33
2019-01-05T07:31:08.564Z,4.10
2019-01-05T07:34:50.621Z,4.77
2019-01-05T07:38:31.521Z,4.20
2019-01-05T07:42:02.974Z,4.40
2019-01-05T07:45:31.431Z,5.00
2019-01-05T07:49:14.657Z,4.10
2019-01-05T07:53:06.215Z,4.80
2019-01-05T07:56:25.664Z,5.60
2019-01-05T08:00:03.434Z,5.17
2019-01-05T08:03:30.156Z,5.30
2019-01-05T08:06:43.209Z,5.70
2019-01-05T08:10:27.824Z,5.23
2019-01-05T08:14:24.821Z,5.83
2019-01-05T08:17:59.239Z,6.53
2019-01-05T08:21:27.921Z,6.67
2019-01-05T08:24:53.754Z,7.07
2019-01-05T08:28:20.781Z,7.30
2019-01-05T08:31:34.172Z,9.37
2019-01-05T08:35:13.087Z,9.40
2019-01-05T08:38:58.948Z,10.30
2019-01-05T08:42:55.313Z,10.60
2019-01-05T08:46:53.228Z,10.60
2019-01-05T08:50:23.785Z,9.77
2019-01-05T08:54:06.421Z,10.10
2019-01-05T08:57:29.076Z,24.50
2019-01-05T09:00:56.392Z,28.27
2019-01-05T09:04:25.265Z,28.20
2019-01-05T09:07:44.826Z,27.63
2019-01-05T09:11:11.722Z,26.63
2019-01-05T09:14:35.622Z,26.47
2019-01-05T09:18:01.382Z,24.43
2019-01-05T09:21:37.627Z,24.90
2019-01-05T09:25:07.689Z,20.50
2019-01-05T09:28:49.617Z,23.53
2019-01-05T09:32:28.881Z,23.17
2019-01-05T09:35:42.480Z,17.07
2019-01-05T09:39:26.359Z,13.80
2019-01-05T09:42:39.875Z,14.50
2019-01-05T09:46:20.978Z,15.97
2019-01-05T09:49:59.980Z,19.40
2019-01-05T09:53:51.734Z,12.37
2019-01-05T09:57:25.939Z,10.70
2019-01-05T10:00:45.234Z,9.40
2019-01-05T10:04:10.943Z,15.50
2019-01-05T10:07:38.036Z,9.37
2019-01-05T10:11:00.199Z,12.10
2019-01-05T10:14:36.683Z,9.93
2019-01-05T10:18:19.132Z,8.80
2019-01-05T10:22:06.390Z,8.47
2019-01-05T10:25:22.823Z,9.87
2019-01-05T10:28:57.166Z,10.10
2019-01-05T10:32:24.561Z,9.63
2019-01-05T10:36:00.998Z,10.90
2019-01-05T10:39:15.709Z,7.87
2019-01-05T10:42:35.103Z,10.73
2019-01-05T10:46:01.303Z,9.23
2019-01-05T10:49:46.499Z,10.00
2019-01-05T10:53:29.347Z,9.53
2019-01-05T10:57:06.901Z,9.50
2019-01-05T11:00:38.441Z,9.50
2019-01-05T11:04:02.752Z,10.03
2019-01-05T11:07:29.767Z,7.80
2019-01-05T11:10:55.478Z,7.57
2019-01-05T11:14:08.707Z,7.63
2019-01-05T11:17:27.979Z,7.43
2019-01-05T11:21:12.378Z,7.90
2019-01-05T11:25:09.951Z,6.93
2019-01-05T11:28:25.697Z,8.87
2019-01-05T11:31:41.878Z,8.13
2019-01-05T11:35:10.721Z,5.97
2019-01-05T11:38:59.169Z,5.90
2019-01-05T11:42:12.397Z,4.83
2019-01-05T11:45:25.839Z,5.17
2019-01-05T11:48:39.077Z,5.43
2019-01-05T11:52:21.139Z,4.77
2019-01-05T11:55:55.951Z,5.50
2019-01-05T11:59:20.320Z,5.23
2019-01-05T12:03:01.965Z,5.27
2019-01-05T12:06:15.456Z,9.00
2019-01-05T12:09:59.333Z,9.57
2019-01-05T12:13:49.649Z,6.40
2019-01-05T12:17:27.293Z,6.40
2019-01-05T12:21:03.944Z,6.23
2019-01-05T12:24:45.062Z,8.77
2019-01-05T12:28:19.894Z,6.97
2019-01-05T12:32:00.871Z,9.60
2019-01-05T12:35:31.081Z,8.50
2019-01-05T12:38:55.588Z,8.17
2019-01-05T12:42:30.382Z,10.87
2019-01-05T12:46:06.153Z,15.40
2019-01-05T12:49:31.782Z,16.10
2019-01-05T12:52:51.317Z,10.37
2019-01-05T12:56:10.965Z,14.50
2019-01-05T12:59:53.564Z,15.70
2019-01-05T13:03:22.247Z,14.00
2019-01-05T13:07:04.479Z,13.60
2019-01-05T13:10:54.507Z,10.97
2019-01-05T13:14:11.343Z,8.67
2019-01-05T13:17:58.367Z,7.27
2019-01-05T13:21:17.354Z,7.83
2019-01-05T13:24:46.159Z,7.10
2019-01-05T13:27:53.668Z,29.90
2019-01-05T13:31:22.690Z,89.63
2019-01-05T13:35:12.193Z,36.20
2019-01-05T13:38:45.728Z,21.73
2019-01-05T13:42:43.776Z,12.57
2019-01-05T13:46:23.488Z,10.63
2019-01-05T13:49:48.906Z,7.10
2019-01-05T13:53:11.489Z,6.47
2019-01-05T13:56:28.843Z,7.73
2019-01-05T13:59:38.519Z,7.27
2019-01-05T14:02:51.404Z,7.63
2019-01-05T14:05:58.044Z,6.70
2019-01-05T14:09:07.758Z,7.53
2019-01-05T14:12:14.265Z,8.63
2019-01-05T14:15:20.905Z,6.27
2019-01-05T14:18:30.634Z,6.17
2019-01-05T14:21:51.054Z,7.17
2019-01-05T14:25:10.271Z,5.70
2019-01-05T14:28:14.061Z,6.50
2019-01-05T14:31:17.887Z,6.17
2019-01-05T14:34:21.688Z,6.33
2019-01-05T14:37:40.599Z,6.10
2019-01-05T14:40:47.517Z,6.67
2019-01-05T14:43:51.258Z,7.60
2019-01-05T14:46:57.881Z,9.87
2019-01-05T14:50:07.762Z,12.17
2019-01-05T14:53:14.572Z,11.63
2019-01-05T14:56:35.161Z,12.43
2019-01-05T14:59:42.440Z,47.80
2019-01-05T15:02:52.889Z,55.37
2019-01-05T15:05:59.468Z,118.47
2019-01-05T15:09:12.245Z,110.03
2019-01-05T15:12:16.229Z,104.00
2019-01-05T15:15:26.109Z,118.67
2019-01-05T15:18:29.970Z,73.63
2019-01-05T15:21:33.661Z,87.23
2019-01-05T15:24:55.949Z,100.90
2019-01-05T15:28:08.642Z,51.63
2019-01-05T15:31:12.484Z,46.43
2019-01-05T15:34:25.081Z,30.83
2019-01-05T15:37:31.560Z,34.63
2019-01-05T15:40:44.479Z,22.20
2019-01-05T15:43:49.019Z,25.40
2019-01-05T15:46:53.003Z,28.37
2019-01-05T15:49:56.776Z,26.37
2019-01-05T15:53:00.508Z,19.83
2019-01-05T15:56:19.517Z,20.00
2019-01-05T15:59:41.890Z,15.83
2019-01-05T16:03:02.461Z,18.37
2019-01-05T16:06:09.429Z,16.13
2019-01-05T16:09:13.350Z,17.27
2019-01-05T16:12:17.142Z,14.03
2019-01-05T16:15:29.841Z,14.23
2019-01-05T16:18:33.795Z,12.83
2019-01-05T16:21:37.595Z,12.63
2019-01-05T16:24:47.338Z,12.27
2019-01-05T16:27:56.954Z,12.10
2019-01-05T16:31:12.779Z,12.10
2019-01-05T16:34:25.707Z,19.97
2019-01-05T16:37:32.609Z,14.93
2019-01-05T16:40:36.481Z,12.73
2019-01-05T16:43:46.302Z,11.47
2019-01-05T16:46:50.068Z,12.27
2019-01-05T16:50:03.122Z,11.53
2019-01-05T16:53:15.841Z,12.47
2019-01-05T16:56:31.895Z,13.83
2019-01-05T16:59:35.769Z,13.30
2019-01-05T17:02:56.362Z,14.57
2019-01-05T17:06:16.992Z,14.30
2019-01-05T17:09:20.801Z,14.57
2019-01-05T17:12:29.472Z,13.50
2019-01-05T17:15:50.288Z,11.13
2019-01-05T17:18:54.067Z,13.70
2019-01-05T17:22:03.890Z,13.03
2019-01-05T17:25:22.839Z,11.57
2019-01-05T17:28:26.630Z,12.73
2019-01-05T17:31:50.110Z,11.10
2019-01-05T17:35:10.246Z,12.93
2019-01-05T17:38:30.805Z,15.93
2019-01-05T17:41:37.756Z,22.80
2019-01-05T17:44:41.627Z,17.27
2019-01-05T17:47:51.507Z,11.53
2019-01-05T17:51:07.002Z,10.63
2019-01-05T17:54:27.308Z,9.50
2019-01-05T17:57:46.168Z,12.10
2019-01-05T18:01:06.523Z,10.43
2019-01-05T18:04:27.182Z,10.83
2019-01-05T18:07:30.980Z,13.53
2019-01-05T18:10:34.821Z,11.40
2019-01-05T18:13:38.656Z,15.90
2019-01-05T18:16:58.822Z,9.87
2019-01-05T18:20:14.902Z,8.63
2019-01-05T18:23:21.447Z,9.77
2019-01-05T18:26:28.871Z,10.40
2019-01-05T18:29:38.553Z,9.57
2019-01-05T18:32:58.995Z,8.60
2019-01-05T18:36:02.874Z,9.40
2019-01-05T18:39:20.779Z,9.47
2019-01-05T18:42:41.164Z,9.77
2019-01-05T18:45:48.075Z,9.50
2019-01-05T18:48:59.022Z,8.33
2019-01-05T18:52:07.126Z,9.17
2019-01-05T18:55:22.925Z,8.10
2019-01-05T18:58:32.819Z,8.37
2019-01-05T19:01:48.650Z,8.10
2019-01-05T19:05:11.178Z,9.07
2019-01-05T19:08:14.920Z,7.50
2019-01-05T19:11:35.124Z,8.13
2019-01-05T19:14:51.149Z,10.77
2019-01-05T19:17:57.912Z,9.87
2019-01-05T19:21:01.665Z,9.53
2019-01-05T19:24:24.612Z,8.67
2019-01-05T19:27:32.220Z,9.30
2019-01-05T19:30:36.000Z,10.33
2019-01-05T19:33:56.392Z,11.77
2019-01-05T19:37:00.330Z,9.80
2019-01-05T19:40:11.151Z,9.67
2019-01-05T19:43:14.987Z,10.47
2019-01-05T19:46:21.535Z,9.27
2019-01-05T19:49:25.398Z,9.97
2019-01-05T19:52:45.671Z,9.73
2019-01-05T19:55:49.519Z,10.03
2019-01-05T19:58:56.271Z,11.50
2019-01-05T20:02:00.493Z,10.37
2019-01-05T20:05:13.638Z,10.00
2019-01-05T20:08:23.404Z,10.10
2019-01-05T20:11:43.958Z,9.20
2019-01-05T20:15:04.553Z,9.03
2019-01-05T20:18:25.305Z,9.07
2019-01-05T20:21:29.122Z,7.83
2019-01-05T20:24:35.957Z,8.10
2019-01-05T20:27:57.477Z,8.97
2019-01-05T20:31:07.539Z,9.80
2019-01-05T20:34:28.316Z,8.93
2019-01-05T20:37:50.691Z,9.07
2019-01-05T20:41:12.297Z,8.77
2019-01-05T20:44:22.649Z,8.73
2019-01-05T20:47:43.208Z,10.43
2019-01-05T20:50:50.160Z,13.47
2019-01-05T20:53:57.241Z,8.27
2019-01-05T20:57:17.700Z,7.33
2019-01-05T21:00:21.519Z,7.83
2019-01-05T21:03:32.262Z,8.67
2019-01-05T21:06:45.147Z,9.00
2019-01-05T21:09:51.898Z,8.13
2019-01-05T21:13:06.387Z,8.77
2019-01-05T21:16:18.919Z,9.17
2019-01-05T21:19:39.924Z,9.40
2019-01-05T21:22:46.802Z,9.57
2019-01-05T21:26:07.831Z,9.87
2019-01-05T21:29:21.936Z,9.30
2019-01-05T21:32:37.565Z,10.17
2019-01-05T21:35:57.571Z,11.67
2019-01-05T21:39:04.165Z,11.03
2019-01-05T21:42:27.410Z,10.70
2019-01-05T21:45:40.135Z,11.83
2019-01-05T21:48:43.885Z,11.20
2019-01-05T21:52:02.726Z,11.03
2019-01-05T21:55:09.333Z,11.27
2019-01-05T21:58:19.271Z,12.33
2019-01-05T22:01:26.124Z,11.07
2019-01-05T22:04:33.118Z,12.07
2019-01-05T22:07:48.762Z,13.73
2019-01-05T22:11:05.882Z,12.00
2019-01-05T22:14:09.682Z,12.77
2019-01-05T22:17:13.455Z,10.87
2019-01-05T22:20:33.885Z,11.33
2019-01-05T22:23:40.902Z,13.43
2019-01-05T22:26:47.484Z,11.17
2019-01-05T22:29:51.282Z,9.27
2019-01-05T22:32:55.037Z,10.70
2019-01-05T22:36:11.207Z,12.13
2019-01-05T22:39:30.344Z,10.87
2019-01-05T22:42:34.083Z,9.13
2019-01-05T22:45:41.031Z,11.00
2019-01-05T22:48:50.814Z,7.73
2019-01-05T22:52:00.281Z,8.30
2019-01-05T22:55:15.911Z,7.40
2019-01-05T22:58:45.030Z,7.47
2019-01-05T23:01:48.895Z,8.43
2019-01-05T23:05:03.179Z,7.77
2019-01-05T23:08:20.521Z,8.47
2019-01-05T23:11:39.624Z,8.70
2019-01-05T23:14:49.249Z,8.43
2019-01-05T23:17:59.113Z,6.30
2019-01-05T23:21:06.005Z,6.97
2019-01-05T23:24:15.785Z,6.97
2019-01-05T23:27:19.573Z,5.27
2019-01-05T23:30:23.345Z,4.80
2019-01-05T23:33:39.469Z,5.97
2019-01-05T23:36:49.115Z,5.47
2019-01-05T23:40:11.114Z,4.20
2019-01-05T23:43:17.525Z,4.77
2019-01-05T23:46:30.245Z,4.20
2019-01-05T23:49:50.666Z,5.60
2019-01-05T23:52:57.168Z,6.00
2019-01-05T23:56:17.612Z,5.60
2019-01-05T23:59:21.384Z,8.33
